< < Back
Terminal Aerodrome Forecast


Current Version              Previous Versions:   1  2  3  4  5  6  7  8  9  

Terminal Aerodrome Forecast

314
FTUS42 KFFC 291121
TAFCSG
TAF
KCSG 291121Z 2912/3012 09005KT P6SM SCT250
     FM291400 08007KT P6SM SCT025
     FM291800 08009KT P6SM VCSH SCT050
     FM292300 07006KT P6SM SCT070 SCT150
     FM300600 07004KT P6SM SCT050=

Latest METAR

555
SAUS70 KWBC 301454
MTRCSG
METAR KCSG 301451Z 09008KT 10SM BKN026 28/21 A3007 RMK AO2 SLP175
T02780211 51005


USA.gov is the U.S. government's official web portal to all federal, state and local government web resources and services.